Arden, Nevada
Current Conditions -  °F | °C
As of 6:56 AM on Thursday 30 Oct 2014 (Local Time) from KLAS Reporting Station
Scattered Clouds Scattered Clouds  
Wind Chill: 58°   Ceiling: Unl
Heat Index: 58°   Visibility: 10mi
Dew Point: 21°   Wind: 5mph
Humidity: 24%   Direction: 210°SSW
Pressure: 30.06"   Gusts: NA
Location:  36.079°N, 115.211°W
Report Text: KLAS 301356Z 21004KT 10SM SCT250 14/M06 A3006 RMK AO2 SLP164 T01441061
Loading
Personal Weather Stations






























Interactive Weather Map
Tropical Storm Tracking
New forecast layout! Learn more

10-Day Weather Forecast

Advertisements
Track Severe Weather on mobile